createdAt,value
2022-10-09T00:01:10.369Z,43.90
2022-10-09T00:06:26.505Z,43.33
2022-10-09T00:11:32.781Z,43.90
2022-10-09T00:16:38.422Z,44.27
2022-10-09T00:21:44.565Z,43.87
2022-10-09T00:26:49.947Z,43.15
2022-10-09T00:31:54.919Z,43.47
2022-10-09T00:37:00.816Z,43.87
2022-10-09T00:42:06.124Z,43.70
2022-10-09T00:47:15.377Z,43.67
2022-10-09T00:52:22.486Z,43.17
2022-10-09T00:57:28.307Z,43.52
2022-10-09T01:02:34.143Z,43.52
2022-10-09T01:12:55.173Z,44.33
2022-10-09T01:18:06.479Z,44.20
2022-10-09T01:23:24.429Z,44.60
2022-10-09T01:28:32.101Z,44.27
2022-10-09T01:33:39.711Z,43.80
2022-10-09T01:38:45.798Z,43.33
2022-10-09T01:43:51.877Z,43.63
2022-10-09T01:49:00.191Z,43.03
2022-10-09T01:54:09.055Z,42.80
2022-10-09T01:59:17.402Z,42.97
2022-10-09T02:04:24.077Z,42.87
2022-10-09T02:09:31.091Z,42.60
2022-10-09T02:14:37.414Z,44.05
2022-10-09T02:19:54.369Z,43.53
2022-10-09T02:25:02.706Z,43.73
2022-10-09T02:30:12.716Z,42.87
2022-10-09T02:35:17.953Z,43.17
2022-10-09T02:40:23.010Z,42.37
2022-10-09T02:45:28.365Z,42.40
2022-10-09T02:50:34.098Z,41.43
2022-10-09T02:55:39.487Z,41.70
2022-10-09T03:00:46.438Z,41.73
2022-10-09T03:06:04.236Z,41.33
2022-10-09T03:11:12.631Z,41.65
2022-10-09T03:16:21.637Z,41.42
2022-10-09T03:21:28.118Z,41.30
2022-10-09T03:26:34.067Z,42.33
2022-10-09T03:31:51.753Z,41.73
2022-10-09T03:36:46.935Z,42.17
2022-10-09T03:41:51.886Z,41.27
2022-10-09T03:46:58.007Z,41.70
2022-10-09T03:52:03.217Z,42.20
2022-10-09T03:57:10.580Z,42.23
2022-10-09T04:02:16.345Z,42.70
2022-10-09T04:07:21.446Z,42.23
2022-10-09T04:12:26.906Z,44.03
2022-10-09T04:17:32.671Z,44.07
2022-10-09T04:22:37.834Z,43.93
2022-10-09T04:27:43.864Z,42.57
2022-10-09T04:32:49.597Z,43.07
2022-10-09T04:37:55.825Z,42.53
2022-10-09T04:43:00.702Z,41.67
2022-10-09T04:48:07.749Z,41.97
2022-10-09T04:53:15.100Z,40.87
2022-10-09T04:58:21.787Z,40.85
2022-10-09T05:03:27.735Z,40.47
2022-10-09T05:08:33.528Z,40.57
2022-10-09T05:13:41.458Z,40.93
2022-10-09T05:18:49.935Z,44.57
2022-10-09T05:23:57.087Z,41.13
2022-10-09T05:29:02.749Z,45.67
2022-10-09T05:34:07.988Z,45.53
2022-10-09T05:39:13.382Z,50.37
2022-10-09T05:44:18.961Z,42.50
2022-10-09T05:49:24.183Z,46.43
2022-10-09T05:54:29.951Z,45.90
2022-10-09T05:59:35.412Z,42.03
2022-10-09T06:04:42.018Z,46.05
2022-10-09T06:09:47.769Z,46.33
2022-10-09T06:14:52.558Z,45.33
2022-10-09T06:19:57.767Z,44.93
2022-10-09T06:25:03.338Z,45.03
2022-10-09T06:30:09.545Z,44.17
2022-10-09T06:35:14.561Z,43.93
2022-10-09T06:40:20.605Z,42.37
2022-10-09T06:45:26.309Z,42.65
2022-10-09T06:50:31.313Z,42.60
2022-10-09T06:55:37.495Z,42.63
2022-10-09T07:00:42.480Z,43.77
2022-10-09T07:05:47.327Z,45.73
2022-10-09T07:10:52.498Z,43.10
2022-10-09T07:16:01.331Z,42.93
2022-10-09T07:21:06.438Z,43.28
2022-10-09T07:26:14.806Z,43.57
2022-10-09T07:31:21.070Z,49.60
2022-10-09T07:36:27.636Z,45.20
2022-10-09T07:41:32.825Z,46.37
2022-10-09T07:46:38.279Z,45.50
2022-10-09T07:51:43.605Z,45.47
2022-10-09T07:56:49.722Z,46.18
2022-10-09T08:01:55.750Z,46.30
2022-10-09T08:07:01.228Z,46.47
2022-10-09T08:12:06.886Z,46.03
2022-10-09T08:17:12.181Z,46.40
2022-10-09T08:22:17.609Z,46.30
2022-10-09T08:27:22.787Z,45.73
2022-10-09T08:32:27.695Z,46.43
2022-10-09T08:37:33.062Z,46.70
2022-10-09T08:42:47.816Z,46.47
2022-10-09T08:47:56.756Z,46.70
2022-10-09T08:53:05.357Z,46.97
2022-10-09T08:58:14.444Z,46.88
2022-10-09T09:03:37.788Z,46.47
2022-10-09T09:08:58.788Z,46.57
2022-10-09T09:14:22.090Z,46.43
2022-10-09T09:19:57.355Z,46.30
2022-10-09T09:25:05.402Z,46.50
2022-10-09T09:30:21.224Z,46.33
2022-10-09T09:36:00.223Z,46.33
2022-10-09T09:41:06.628Z,46.63
2022-10-09T09:46:18.340Z,46.60
2022-10-09T09:51:29.717Z,46.40
2022-10-09T09:57:06.828Z,46.77
2022-10-09T10:01:47.046Z,46.90
2022-10-09T10:06:52.343Z,46.43
2022-10-09T10:12:03.841Z,46.60
2022-10-09T10:17:16.345Z,47.23
2022-10-09T10:22:29.360Z,46.97
2022-10-09T10:27:59.759Z,47.37
2022-10-09T10:33:10.502Z,46.92
2022-10-09T10:38:19.322Z,47.20
2022-10-09T10:43:48.706Z,46.77
2022-10-09T10:48:54.780Z,47.23
2022-10-09T10:54:03.296Z,46.90
2022-10-09T10:59:29.888Z,46.83
2022-10-09T11:04:50.113Z,46.67
2022-10-09T11:10:06.880Z,46.87
2022-10-09T11:15:37.933Z,46.63
2022-10-09T11:21:03.625Z,47.07
2022-10-09T11:26:23.956Z,46.77
2022-10-09T11:31:42.209Z,46.60
2022-10-09T11:36:48.452Z,46.63
2022-10-09T11:41:55.502Z,46.90
2022-10-09T11:47:09.676Z,47.13
2022-10-09T11:52:30.235Z,46.83
2022-10-09T11:57:37.619Z,47.03
2022-10-09T12:02:44.529Z,46.77
2022-10-09T12:07:50.301Z,46.58
2022-10-09T12:18:06.868Z,46.68
2022-10-09T12:23:29.015Z,46.57
2022-10-09T12:28:37.281Z,46.73
2022-10-09T12:33:49.146Z,46.85
2022-10-09T12:38:54.218Z,46.60
2022-10-09T12:44:00.692Z,46.80
2022-10-09T12:49:09.317Z,46.97
2022-10-09T12:54:16.807Z,46.93
2022-10-09T12:59:23.780Z,47.27
2022-10-09T13:04:31.837Z,49.40
2022-10-09T13:09:40.850Z,46.53
2022-10-09T13:14:50.246Z,47.27
2022-10-09T13:20:00.325Z,46.47
2022-10-09T13:25:06.433Z,46.70
2022-10-09T13:35:19.307Z,46.70
2022-10-09T13:40:25.156Z,46.30
2022-10-09T13:45:30.548Z,47.13
2022-10-09T13:50:36.154Z,46.20
2022-10-09T13:55:42.124Z,46.30
2022-10-09T14:05:53.677Z,46.48
2022-10-09T14:11:01.944Z,46.87
2022-10-09T14:16:08.076Z,46.57
2022-10-09T14:21:15.859Z,53.50
2022-10-09T14:26:21.551Z,46.70
2022-10-09T14:31:27.700Z,46.75
2022-10-09T14:36:33.712Z,46.50
2022-10-09T14:41:38.857Z,46.47
2022-10-09T14:46:43.805Z,46.53
2022-10-09T14:51:48.856Z,46.67
2022-10-09T14:56:55.759Z,46.50
2022-10-09T15:02:00.906Z,47.43
2022-10-09T15:07:06.267Z,47.03
2022-10-09T15:12:12.035Z,46.60
2022-10-09T15:17:17.087Z,47.27
2022-10-09T15:22:22.114Z,47.83
2022-10-09T15:27:27.494Z,47.07
2022-10-09T15:32:33.776Z,46.48
2022-10-09T15:37:40.640Z,48.43
2022-10-09T15:42:48.087Z,47.17
2022-10-09T15:47:55.999Z,46.93
2022-10-09T15:53:03.735Z,46.83
2022-10-09T15:58:11.054Z,47.57
2022-10-09T16:03:19.020Z,50.07
2022-10-09T16:08:24.978Z,55.37
2022-10-09T16:13:30.621Z,54.38
2022-10-09T16:18:36.143Z,47.53
2022-10-09T16:23:43.653Z,49.98
2022-10-09T16:28:50.315Z,48.00
2022-10-09T16:33:56.985Z,48.33
2022-10-09T16:39:03.594Z,46.67
2022-10-09T16:44:14.326Z,46.57
2022-10-09T16:49:25.226Z,49.30
2022-10-09T16:54:32.493Z,45.77
2022-10-09T17:04:44.134Z,45.15
2022-10-09T17:09:50.719Z,46.20
2022-10-09T17:14:58.330Z,47.30
2022-10-09T17:20:04.820Z,46.50
2022-10-09T17:25:14.470Z,46.92
2022-10-09T17:30:20.962Z,51.92
2022-10-09T17:35:27.140Z,49.90
2022-10-09T17:40:39.222Z,49.17
2022-10-09T17:45:47.186Z,47.60
2022-10-09T17:50:54.965Z,48.23
2022-10-09T17:56:03.939Z,49.00
2022-10-09T18:01:12.620Z,47.67
2022-10-09T18:06:23.256Z,46.77
2022-10-09T18:11:30.173Z,51.47
2022-10-09T18:16:38.796Z,50.60
2022-10-09T18:21:50.415Z,48.27
2022-10-09T18:26:56.341Z,48.03
2022-10-09T18:32:03.053Z,46.08
2022-10-09T18:37:09.095Z,46.23
2022-10-09T18:42:15.032Z,45.97
2022-10-09T18:47:26.142Z,45.40
2022-10-09T18:52:32.172Z,46.03
2022-10-09T18:57:41.534Z,45.35
2022-10-09T19:02:47.261Z,43.67
2022-10-09T19:07:54.602Z,45.03
2022-10-09T19:13:00.878Z,45.00
2022-10-09T19:18:08.181Z,45.00
2022-10-09T19:23:15.204Z,45.45
2022-10-09T19:28:22.024Z,45.30
2022-10-09T19:33:29.435Z,51.30
2022-10-09T19:38:36.682Z,52.03
2022-10-09T19:43:42.592Z,53.17
2022-10-09T19:48:47.602Z,52.93
2022-10-09T19:53:55.731Z,50.67
2022-10-09T19:59:03.692Z,52.10
2022-10-09T20:04:11.960Z,47.07
2022-10-09T20:09:18.020Z,58.90
2022-10-09T20:14:26.824Z,45.65
2022-10-09T20:19:31.854Z,47.07
2022-10-09T20:24:37.202Z,50.03
2022-10-09T20:29:43.376Z,50.23
2022-10-09T20:34:50.276Z,46.60
2022-10-09T20:39:55.985Z,47.10
2022-10-09T20:45:02.017Z,45.37
2022-10-09T20:50:08.295Z,55.60
2022-10-09T20:55:13.653Z,44.33
2022-10-09T21:00:18.541Z,45.27
2022-10-09T21:05:23.746Z,43.10
2022-10-09T21:10:30.218Z,48.23
2022-10-09T21:15:38.274Z,44.95
2022-10-09T21:20:44.175Z,44.77
2022-10-09T21:25:54.922Z,42.80
2022-10-09T21:31:00.385Z,45.43
2022-10-09T21:36:10.655Z,44.80
2022-10-09T21:41:16.426Z,54.47
2022-10-09T21:46:22.643Z,45.17
2022-10-09T21:51:28.778Z,45.50
2022-10-09T21:56:34.649Z,44.70
2022-10-09T22:01:39.813Z,43.23
2022-10-09T22:06:44.961Z,43.80
2022-10-09T22:11:50.734Z,44.00
2022-10-09T22:16:55.675Z,43.13
2022-10-09T22:22:00.932Z,42.73
2022-10-09T22:27:07.396Z,42.73
2022-10-09T22:32:14.414Z,42.23
2022-10-09T22:37:19.673Z,42.57
2022-10-09T22:42:25.300Z,41.83
2022-10-09T22:47:30.173Z,41.60
2022-10-09T22:52:35.036Z,43.43
2022-10-09T22:57:40.184Z,43.83
2022-10-09T23:02:45.068Z,42.20
2022-10-09T23:07:50.804Z,42.63
2022-10-09T23:12:55.852Z,42.73
2022-10-09T23:18:01.044Z,41.97
2022-10-09T23:23:07.594Z,41.90
2022-10-09T23:28:13.324Z,41.68
2022-10-09T23:33:18.923Z,42.35
2022-10-09T23:38:24.472Z,42.35
2022-10-09T23:43:30.769Z,42.30
2022-10-09T23:48:36.630Z,41.85
2022-10-09T23:53:42.816Z,42.13
2022-10-09T23:58:50.086Z,41.60
